createdAt,value
2023-04-14T00:02:29.178Z,9.90
2023-04-14T00:05:07.955Z,9.00
2023-04-14T00:10:08.587Z,8.60
2023-04-14T00:12:38.772Z,9.00
2023-04-14T00:15:52.154Z,8.60
2023-04-14T00:18:21.790Z,8.30
2023-04-14T00:20:53.665Z,9.10
2023-04-14T00:23:23.169Z,8.80
2023-04-14T00:25:52.999Z,9.10
2023-04-14T00:28:22.099Z,9.40
2023-04-14T00:30:52.547Z,8.60
2023-04-14T00:33:22.253Z,8.90
2023-04-14T00:35:51.768Z,9.50
2023-04-14T00:38:21.385Z,9.10
2023-04-14T00:40:51.911Z,9.30
2023-04-14T00:43:24.640Z,9.90
2023-04-14T00:45:55.099Z,9.30
2023-04-14T00:48:25.706Z,10.50
2023-04-14T00:50:59.001Z,10.10
2023-04-14T00:53:47.040Z,9.00
2023-04-14T00:56:27.402Z,9.80
2023-04-14T00:59:02.743Z,9.80
2023-04-14T01:01:36.134Z,9.60
2023-04-14T01:04:08.419Z,10.00
2023-04-14T01:06:40.216Z,9.50
2023-04-14T01:09:17.277Z,9.90
2023-04-14T01:12:11.371Z,9.90
2023-04-14T01:14:45.598Z,9.80
2023-04-14T01:17:26.606Z,9.30
2023-04-14T01:20:09.686Z,9.80
2023-04-14T01:22:44.210Z,8.90
2023-04-14T01:25:45.800Z,9.80
2023-04-14T01:28:41.950Z,9.30
2023-04-14T01:31:20.898Z,10.10
2023-04-14T01:33:57.784Z,9.30
2023-04-14T01:36:33.528Z,9.90
2023-04-14T01:39:06.177Z,9.70
2023-04-14T01:41:43.241Z,9.20
2023-04-14T01:44:15.554Z,9.90
2023-04-14T01:46:48.603Z,9.70
2023-04-14T01:49:22.982Z,9.30
2023-04-14T01:51:57.282Z,10.20
2023-04-14T01:54:32.406Z,10.00
2023-04-14T01:57:06.910Z,9.90
2023-04-14T01:59:39.571Z,10.10
2023-04-14T02:02:11.434Z,9.80
2023-04-14T02:04:43.500Z,10.20
2023-04-14T02:07:15.788Z,10.40
2023-04-14T02:09:49.222Z,10.50
2023-04-14T02:14:55.495Z,9.70
2023-04-14T02:17:27.937Z,10.60
2023-04-14T02:19:59.538Z,10.50
2023-04-14T02:22:29.185Z,11.10
2023-04-14T02:24:58.858Z,11.60
2023-04-14T02:27:33.882Z,11.00
2023-04-14T02:30:08.767Z,11.30
2023-04-14T02:32:44.534Z,10.80
2023-04-14T02:35:18.838Z,11.70
2023-04-14T02:37:53.976Z,11.50
2023-04-14T02:40:32.140Z,10.80
2023-04-14T02:43:14.319Z,11.50
2023-04-14T02:45:48.689Z,11.30
2023-04-14T02:48:21.992Z,11.30
2023-04-14T02:50:55.071Z,11.10
2023-04-14T02:53:27.488Z,11.40
2023-04-14T02:55:59.115Z,11.40
2023-04-14T02:58:34.448Z,11.30
2023-04-14T03:01:05.550Z,11.10
2023-04-14T03:03:37.279Z,11.40
2023-04-14T03:06:08.757Z,11.70
2023-04-14T03:08:39.162Z,10.40
2023-04-14T03:11:11.429Z,10.60
2023-04-14T03:13:42.539Z,10.80
2023-04-14T03:16:15.342Z,10.70
2023-04-14T03:18:46.965Z,10.80
2023-04-14T03:21:20.424Z,10.30
2023-04-14T03:24:00.572Z,10.40
2023-04-14T03:26:37.654Z,10.70
2023-04-14T03:29:07.914Z,10.70
2023-04-14T03:31:39.348Z,10.40
2023-04-14T03:34:11.448Z,10.20
2023-04-14T03:36:42.704Z,9.90
2023-04-14T03:39:17.656Z,11.10
2023-04-14T03:41:51.568Z,10.00
2023-04-14T03:44:22.047Z,9.80
2023-04-14T03:46:51.681Z,9.90
2023-04-14T03:49:26.692Z,9.80
2023-04-14T03:52:07.702Z,9.40
2023-04-14T03:54:44.394Z,9.50
2023-04-14T03:57:34.177Z,9.50
2023-04-14T04:00:21.004Z,9.90
2023-04-14T04:02:52.987Z,9.60
2023-04-14T04:05:23.516Z,9.80
2023-04-14T04:07:54.109Z,9.50
2023-04-14T04:10:27.077Z,9.50
2023-04-14T04:12:57.945Z,9.60
2023-04-14T04:15:35.752Z,8.20
2023-04-14T04:18:08.735Z,9.10
2023-04-14T04:20:42.360Z,8.80
2023-04-14T04:23:13.666Z,8.80
2023-04-14T04:25:43.712Z,8.10
2023-04-14T04:28:13.353Z,8.90
2023-04-14T04:30:46.206Z,8.60
2023-04-14T04:33:17.072Z,8.40
2023-04-14T04:35:48.911Z,8.40
2023-04-14T04:38:19.254Z,8.40
2023-04-14T04:40:52.310Z,8.40
2023-04-14T04:43:21.515Z,9.00
2023-04-14T04:46:08.964Z,9.40
2023-04-14T04:48:38.241Z,7.90
2023-04-14T04:51:08.089Z,8.30
2023-04-14T04:53:38.102Z,6.70
2023-04-14T04:56:10.853Z,7.50
2023-04-14T04:58:41.891Z,8.30
2023-04-14T05:01:11.668Z,7.70
2023-04-14T05:03:41.015Z,7.90
2023-04-14T05:06:10.420Z,8.10
2023-04-14T05:08:39.964Z,8.40
2023-04-14T05:11:09.524Z,8.20
2023-04-14T05:13:38.991Z,7.80
2023-04-14T05:16:10.476Z,7.70
2023-04-14T05:18:40.874Z,7.20
2023-04-14T05:21:12.170Z,7.60
2023-04-14T05:23:43.493Z,7.60
2023-04-14T05:26:44.009Z,7.60
2023-04-14T05:29:04.700Z,7.20
2023-04-14T05:31:34.700Z,6.60
2023-04-14T05:34:12.022Z,7.00
2023-04-14T05:36:44.321Z,6.30
2023-04-14T05:39:13.837Z,6.50
2023-04-14T05:41:43.147Z,6.00
2023-04-14T05:44:12.526Z,5.90
2023-04-14T05:46:42.066Z,5.50
2023-04-14T05:49:12.553Z,5.40
2023-04-14T05:51:44.142Z,5.90
2023-04-14T05:54:15.966Z,6.00
2023-04-14T05:56:45.438Z,5.70
2023-04-14T05:59:15.769Z,6.40
2023-04-14T06:01:45.408Z,6.10
2023-04-14T06:04:16.496Z,6.40
2023-04-14T06:06:45.625Z,5.80
2023-04-14T06:09:15.226Z,6.30
2023-04-14T06:11:44.752Z,6.50
2023-04-14T06:14:13.979Z,6.00
2023-04-14T06:16:43.274Z,6.30
2023-04-14T06:19:13.675Z,6.70
2023-04-14T06:21:43.151Z,6.40
2023-04-14T06:24:12.186Z,6.60
2023-04-14T06:26:41.977Z,5.70
2023-04-14T06:29:11.429Z,6.20
2023-04-14T06:31:40.885Z,5.80
2023-04-14T06:34:10.597Z,5.90
2023-04-14T06:36:40.599Z,6.10
2023-04-14T06:39:15.015Z,5.80
2023-04-14T06:41:44.675Z,5.50
2023-04-14T06:44:14.094Z,5.70
2023-04-14T06:46:43.630Z,5.40
2023-04-14T06:49:12.797Z,5.10
2023-04-14T06:51:42.196Z,5.80
2023-04-14T06:54:11.440Z,5.60
2023-04-14T06:56:41.098Z,5.00
2023-04-14T06:59:10.477Z,5.90
2023-04-14T07:01:39.842Z,6.20
2023-04-14T07:04:09.582Z,5.40
2023-04-14T07:06:39.437Z,5.50
2023-04-14T07:09:08.656Z,5.10
2023-04-14T07:11:37.803Z,5.40
2023-04-14T07:14:07.217Z,5.10
2023-04-14T07:16:36.760Z,5.50
2023-04-14T07:19:08.117Z,5.60
2023-04-14T07:21:37.972Z,5.20
2023-04-14T07:24:07.837Z,5.70
2023-04-14T07:26:38.883Z,5.50
2023-04-14T07:29:08.597Z,5.60
2023-04-14T07:31:39.157Z,5.30
2023-04-14T07:34:08.658Z,5.10
2023-04-14T07:36:38.131Z,5.10
2023-04-14T07:39:07.781Z,4.70
2023-04-14T07:41:37.025Z,5.00
2023-04-14T07:44:07.366Z,4.10
2023-04-14T07:46:36.999Z,4.30
2023-04-14T07:49:06.269Z,4.40
2023-04-14T07:51:36.476Z,4.50
2023-04-14T07:54:06.200Z,4.20
2023-04-14T07:56:35.426Z,4.20
2023-04-14T07:59:06.779Z,4.10
2023-04-14T08:01:36.051Z,4.70
2023-04-14T08:04:05.626Z,4.30
2023-04-14T08:06:35.460Z,4.30
2023-04-14T08:09:05.160Z,4.20
2023-04-14T08:11:34.406Z,4.80
2023-04-14T08:14:04.281Z,4.30
2023-04-14T08:16:36.077Z,4.30
2023-04-14T08:19:05.804Z,4.30
2023-04-14T08:21:34.978Z,4.20
2023-04-14T08:24:05.994Z,4.20
2023-04-14T08:26:35.556Z,4.30
2023-04-14T08:29:06.824Z,3.80
2023-04-14T08:31:36.364Z,4.00
2023-04-14T08:34:05.879Z,4.20
2023-04-14T08:36:35.136Z,4.80
2023-04-14T08:39:05.019Z,4.10
2023-04-14T08:41:35.282Z,4.50
2023-04-14T08:44:05.493Z,4.00
2023-04-14T08:46:36.520Z,4.30
2023-04-14T08:49:07.818Z,3.90
2023-04-14T08:51:39.480Z,4.50
2023-04-14T08:54:10.721Z,3.60
2023-04-14T08:56:41.981Z,4.00
2023-04-14T08:59:13.165Z,4.20
2023-04-14T09:01:42.439Z,3.90
2023-04-14T09:04:13.798Z,4.00
2023-04-14T09:06:43.438Z,4.30
2023-04-14T09:09:13.037Z,4.50
2023-04-14T09:11:43.039Z,4.30
2023-04-14T09:14:14.552Z,4.10
2023-04-14T09:16:43.991Z,4.30
2023-04-14T09:19:13.521Z,3.90
2023-04-14T09:21:52.451Z,4.20
2023-04-14T09:24:31.810Z,3.90
2023-04-14T09:27:12.034Z,4.20
2023-04-14T09:29:43.236Z,3.80
2023-04-14T09:32:13.920Z,3.90
2023-04-14T09:34:53.975Z,3.80
2023-04-14T09:37:25.730Z,3.90
2023-04-14T09:39:56.783Z,4.50
2023-04-14T09:42:40.896Z,3.70
2023-04-14T09:45:11.641Z,3.60
2023-04-14T09:47:41.174Z,4.00
2023-04-14T09:50:11.976Z,3.70
2023-04-14T09:52:46.223Z,3.20
2023-04-14T09:55:16.579Z,3.60
2023-04-14T09:57:47.082Z,3.30
2023-04-14T10:00:23.141Z,3.40
2023-04-14T10:02:55.645Z,3.50
2023-04-14T10:05:33.113Z,3.70
2023-04-14T10:08:04.732Z,3.70
2023-04-14T10:10:34.684Z,3.10
2023-04-14T10:13:03.908Z,3.70
2023-04-14T10:15:34.073Z,3.80
2023-04-14T10:18:05.141Z,3.40
2023-04-14T10:20:36.053Z,3.60
2023-04-14T10:23:06.566Z,3.20
2023-04-14T10:25:36.932Z,2.90
2023-04-14T10:28:06.820Z,2.70
2023-04-14T10:30:38.519Z,3.00
2023-04-14T10:33:08.886Z,2.60
2023-04-14T10:35:42.583Z,2.30
2023-04-14T10:38:12.029Z,2.50
2023-04-14T10:40:47.889Z,2.20
2023-04-14T10:43:17.438Z,2.40
2023-04-14T10:45:57.490Z,2.20
2023-04-14T10:48:28.184Z,2.20
2023-04-14T10:50:59.739Z,2.50
2023-04-14T10:53:54.991Z,2.20
2023-04-14T10:56:28.806Z,2.30
2023-04-14T10:58:59.261Z,2.30
2023-04-14T11:01:33.785Z,2.70
2023-04-14T11:04:23.756Z,2.30
2023-04-14T11:06:56.727Z,2.40
2023-04-14T11:09:32.403Z,2.70
2023-04-14T11:12:06.208Z,2.60
2023-04-14T11:14:36.599Z,2.50
2023-04-14T11:17:06.831Z,2.50
2023-04-14T11:19:36.463Z,2.80
2023-04-14T11:22:06.289Z,2.40
2023-04-14T11:24:35.659Z,2.90
2023-04-14T11:27:05.137Z,3.00
2023-04-14T11:29:38.360Z,2.90
2023-04-14T11:32:08.398Z,2.70
2023-04-14T11:34:37.819Z,3.20
2023-04-14T11:37:07.812Z,2.40
2023-04-14T11:39:38.001Z,2.70
2023-04-14T11:42:07.278Z,2.40
2023-04-14T11:44:36.468Z,2.90
2023-04-14T11:47:05.688Z,2.80
2023-04-14T11:49:37.150Z,2.40
2023-04-14T11:52:07.700Z,2.60
2023-04-14T11:54:40.594Z,3.10
2023-04-14T11:57:17.147Z,2.90
2023-04-14T11:59:48.454Z,2.70
2023-04-14T12:02:21.856Z,2.80
2023-04-14T12:04:56.642Z,2.50
2023-04-14T12:07:29.432Z,2.60
2023-04-14T12:09:58.652Z,2.30
2023-04-14T12:12:28.942Z,2.70
2023-04-14T12:14:58.297Z,2.60
2023-04-14T12:17:27.853Z,2.70
2023-04-14T12:19:57.099Z,3.00
2023-04-14T12:22:29.646Z,2.90
2023-04-14T12:24:59.337Z,2.70
2023-04-14T12:27:28.576Z,2.90
2023-04-14T12:29:57.960Z,3.10
2023-04-14T12:32:30.088Z,3.40
2023-04-14T12:35:00.794Z,3.30
2023-04-14T12:37:30.745Z,3.70
2023-04-14T12:40:05.806Z,2.90
2023-04-14T12:42:49.070Z,3.00
2023-04-14T12:45:18.371Z,3.20
2023-04-14T12:47:56.587Z,3.40
2023-04-14T12:50:35.105Z,3.40
2023-04-14T12:53:22.922Z,3.60
2023-04-14T12:56:06.558Z,3.40
2023-04-14T12:58:37.706Z,3.50
2023-04-14T13:01:09.556Z,3.30
2023-04-14T13:03:45.294Z,3.90
2023-04-14T13:06:16.270Z,3.90
2023-04-14T13:08:49.839Z,3.40
2023-04-14T13:11:20.802Z,3.20
2023-04-14T13:13:51.829Z,4.00
2023-04-14T13:16:21.752Z,3.30
2023-04-14T13:18:51.245Z,3.70
2023-04-14T13:21:20.995Z,3.90
2023-04-14T13:23:50.387Z,3.60
2023-04-14T13:26:20.309Z,3.90
2023-04-14T13:28:50.328Z,3.80
2023-04-14T13:31:19.820Z,3.70
2023-04-14T13:33:49.071Z,3.80
2023-04-14T13:36:18.244Z,3.60
2023-04-14T13:38:47.808Z,3.50
2023-04-14T13:41:19.048Z,3.50
2023-04-14T13:43:48.294Z,3.30
2023-04-14T13:46:19.085Z,3.60
2023-04-14T13:48:51.800Z,3.60
2023-04-14T13:51:23.126Z,3.80
2023-04-14T13:53:55.703Z,3.80
2023-04-14T13:56:26.838Z,3.70
2023-04-14T13:58:57.236Z,3.70
2023-04-14T14:01:27.766Z,3.40
2023-04-14T14:03:58.288Z,3.70
2023-04-14T14:06:29.018Z,3.60
2023-04-14T14:09:05.132Z,3.70
2023-04-14T14:11:35.734Z,3.60
2023-04-14T14:14:05.064Z,3.80
2023-04-14T14:16:37.220Z,3.70
2023-04-14T14:19:11.976Z,3.80
2023-04-14T14:21:42.681Z,3.80
2023-04-14T14:24:12.165Z,4.30
2023-04-14T14:26:41.560Z,4.00
2023-04-14T14:29:10.824Z,4.70
2023-04-14T14:31:41.468Z,4.70
2023-04-14T14:34:10.730Z,4.50
2023-04-14T14:36:41.233Z,4.40
2023-04-14T14:39:17.334Z,4.40
2023-04-14T14:41:48.688Z,4.80
2023-04-14T14:44:18.560Z,5.80
2023-04-14T14:46:47.901Z,5.70
2023-04-14T14:49:17.348Z,5.70
2023-04-14T14:51:47.852Z,5.70
2023-04-14T14:54:17.015Z,6.00
2023-04-14T14:56:46.182Z,6.00
2023-04-14T14:59:16.143Z,6.00
2023-04-14T15:01:46.284Z,6.00
2023-04-14T15:04:16.711Z,6.60
2023-04-14T15:06:47.027Z,6.40
2023-04-14T15:09:16.495Z,6.10
2023-04-14T15:11:46.686Z,6.10
2023-04-14T15:14:16.380Z,6.30
2023-04-14T15:16:45.774Z,5.90
2023-04-14T15:19:15.501Z,5.50
2023-04-14T15:21:45.013Z,6.10
2023-04-14T15:24:14.522Z,6.00
2023-04-14T15:26:43.829Z,5.80
2023-04-14T15:29:14.290Z,5.80
2023-04-14T15:31:44.855Z,6.00
2023-04-14T15:34:14.871Z,5.90
2023-04-14T15:36:44.317Z,5.40
2023-04-14T15:39:13.920Z,5.40
2023-04-14T15:41:44.041Z,5.30
2023-04-14T15:44:13.540Z,5.50
2023-04-14T15:46:45.896Z,5.60
2023-04-14T15:49:15.554Z,5.40
2023-04-14T15:51:45.574Z,5.40
2023-04-14T15:54:20.160Z,5.60
2023-04-14T15:56:54.424Z,5.70
2023-04-14T16:02:01.088Z,5.50
2023-04-14T16:04:30.803Z,5.40
2023-04-14T16:07:02.033Z,5.60
2023-04-14T16:09:31.343Z,5.90
2023-04-14T16:12:01.123Z,6.10
2023-04-14T16:14:36.209Z,6.10
2023-04-14T16:17:07.196Z,5.50
2023-04-14T16:19:36.618Z,5.20
2023-04-14T16:22:07.828Z,4.50
2023-04-14T16:24:38.901Z,4.90
2023-04-14T16:27:08.395Z,5.20
2023-04-14T16:29:37.638Z,4.80
2023-04-14T16:32:06.732Z,5.00
2023-04-14T16:34:36.031Z,4.50
2023-04-14T16:37:06.258Z,4.20
2023-04-14T16:39:36.031Z,3.60
2023-04-14T16:42:06.140Z,3.10
2023-04-14T16:44:38.510Z,3.40
2023-04-14T16:47:07.714Z,3.00
2023-04-14T16:49:37.238Z,3.30
2023-04-14T16:52:07.327Z,2.50
2023-04-14T16:54:38.495Z,2.50
2023-04-14T16:57:07.998Z,2.00
2023-04-14T16:59:37.423Z,2.40
2023-04-14T17:02:08.236Z,2.30
2023-04-14T17:04:43.886Z,2.50
2023-04-14T17:07:13.750Z,2.20
2023-04-14T17:09:42.917Z,2.60
2023-04-14T17:12:12.343Z,2.60
2023-04-14T17:14:41.957Z,2.30
2023-04-14T17:17:11.361Z,2.80
2023-04-14T17:19:40.674Z,2.70
2023-04-14T17:22:10.176Z,2.40
2023-04-14T17:24:39.348Z,2.50
2023-04-14T17:27:10.836Z,2.50
2023-04-14T17:29:41.436Z,2.60
2023-04-14T17:32:10.783Z,2.30
2023-04-14T17:34:40.358Z,2.40
2023-04-14T17:37:09.995Z,2.50
2023-04-14T17:39:39.774Z,2.00
2023-04-14T17:42:11.579Z,2.30
2023-04-14T17:44:40.874Z,2.40
2023-04-14T17:47:14.768Z,3.00
2023-04-14T17:49:44.379Z,2.60
2023-04-14T17:52:13.962Z,2.40
2023-04-14T17:54:44.177Z,2.30
2023-04-14T17:57:14.396Z,2.80
2023-04-14T17:59:44.288Z,2.60
2023-04-14T18:02:15.197Z,2.70
2023-04-14T18:04:46.650Z,2.30
2023-04-14T18:07:16.313Z,2.50
2023-04-14T18:09:47.879Z,2.30
2023-04-14T18:12:18.281Z,2.40
2023-04-14T18:14:49.133Z,2.70
2023-04-14T18:17:19.466Z,2.50
2023-04-14T18:19:49.458Z,2.80
2023-04-14T18:22:18.694Z,2.70
2023-04-14T18:24:48.676Z,2.50
2023-04-14T18:29:53.816Z,2.80
2023-04-14T18:32:24.885Z,2.20
2023-04-14T18:35:03.565Z,2.50
2023-04-14T18:37:42.711Z,3.10
2023-04-14T18:40:16.293Z,2.40
2023-04-14T18:42:46.828Z,2.50
2023-04-14T18:45:18.450Z,2.70
2023-04-14T18:47:50.987Z,2.80
2023-04-14T18:50:23.736Z,2.90
2023-04-14T18:52:54.643Z,2.70
2023-04-14T18:55:26.077Z,2.90
2023-04-14T18:58:11.692Z,2.70
2023-04-14T19:00:42.873Z,3.20
2023-04-14T19:03:12.845Z,2.90
2023-04-14T19:05:42.321Z,2.70
2023-04-14T19:08:11.664Z,2.70
2023-04-14T19:10:45.316Z,2.80
2023-04-14T19:13:14.908Z,2.60
2023-04-14T19:15:44.426Z,3.00
2023-04-14T19:18:14.535Z,3.00
2023-04-14T19:20:47.082Z,3.00
2023-04-14T19:23:16.508Z,3.00
2023-04-14T19:25:45.688Z,3.00
2023-04-14T19:28:17.596Z,3.40
2023-04-14T19:30:48.051Z,3.80
2023-04-14T19:33:17.223Z,3.80
2023-04-14T19:35:48.236Z,3.40
2023-04-14T19:38:20.485Z,3.70
2023-04-14T19:40:50.455Z,3.60
2023-04-14T19:43:19.847Z,3.20
2023-04-14T19:45:52.931Z,3.10
2023-04-14T19:48:24.356Z,3.00
2023-04-14T19:51:12.468Z,3.20
2023-04-14T19:53:43.564Z,3.40
2023-04-14T19:56:12.814Z,3.80
2023-04-14T19:58:43.285Z,3.40
2023-04-14T20:01:13.217Z,3.30
2023-04-14T20:04:05.557Z,2.80
2023-04-14T20:06:41.982Z,3.20
2023-04-14T20:09:11.692Z,2.90
2023-04-14T20:11:42.145Z,2.80
2023-04-14T20:14:11.839Z,2.90
2023-04-14T20:16:42.184Z,3.10
2023-04-14T20:19:12.185Z,2.60
2023-04-14T20:21:42.160Z,2.90
2023-04-14T20:24:12.634Z,3.00
2023-04-14T20:26:43.679Z,2.60
2023-04-14T20:29:13.268Z,2.40
2023-04-14T20:31:43.673Z,2.50
2023-04-14T20:34:13.016Z,2.40
2023-04-14T20:36:44.318Z,2.40
2023-04-14T20:39:13.667Z,2.70
2023-04-14T20:41:43.172Z,2.50
2023-04-14T20:44:12.629Z,2.70
2023-04-14T20:46:42.197Z,2.70
2023-04-14T20:49:11.756Z,2.60
2023-04-14T20:51:41.246Z,2.80
2023-04-14T20:54:11.064Z,2.50
2023-04-14T20:56:40.554Z,2.20
2023-04-14T20:59:10.482Z,2.60
2023-04-14T21:01:42.153Z,2.00
2023-04-14T21:04:11.771Z,2.20
2023-04-14T21:06:41.398Z,2.70
2023-04-14T21:09:10.596Z,2.40
2023-04-14T21:11:40.071Z,2.50
2023-04-14T21:15:31.160Z,2.20
2023-04-14T21:17:00.446Z,2.40
2023-04-14T21:19:32.140Z,2.40
2023-04-14T21:22:01.830Z,2.70
2023-04-14T21:24:31.076Z,2.30
2023-04-14T21:27:02.233Z,2.60
2023-04-14T21:29:31.651Z,2.90
2023-04-14T21:32:01.119Z,2.70
2023-04-14T21:34:30.386Z,3.10
2023-04-14T21:37:03.257Z,2.70
2023-04-14T21:39:35.013Z,3.10
2023-04-14T21:42:04.989Z,3.00
2023-04-14T21:44:34.835Z,2.80
2023-04-14T21:47:04.733Z,2.60
2023-04-14T21:49:34.057Z,2.80
2023-04-14T21:52:03.514Z,2.70
2023-04-14T21:54:32.855Z,2.90
2023-04-14T21:57:02.173Z,2.90
2023-04-14T21:59:31.463Z,3.00
2023-04-14T22:02:03.877Z,3.10
2023-04-14T22:04:36.737Z,3.40
2023-04-14T22:07:07.345Z,3.70
2023-04-14T22:09:36.893Z,3.80
2023-04-14T22:12:06.810Z,3.90
2023-04-14T22:14:36.059Z,4.50
2023-04-14T22:17:06.433Z,4.50
2023-04-14T22:19:36.213Z,4.50
2023-04-14T22:22:05.990Z,4.90
2023-04-14T22:24:35.314Z,4.60
2023-04-14T22:27:04.677Z,4.80
2023-04-14T22:29:34.376Z,4.60
2023-04-14T22:32:03.699Z,4.30
2023-04-14T22:34:33.166Z,4.00
2023-04-14T22:37:02.531Z,4.00
2023-04-14T22:39:31.728Z,3.90
2023-04-14T22:42:01.690Z,3.60
2023-04-14T22:44:30.941Z,3.80
2023-04-14T22:47:01.705Z,3.40
2023-04-14T22:49:31.478Z,3.30
2023-04-14T22:52:01.854Z,3.10
2023-04-14T22:54:31.120Z,3.40
2023-04-14T22:57:00.936Z,3.20
2023-04-14T22:59:32.024Z,3.60
2023-04-14T23:02:02.371Z,2.90
2023-04-14T23:04:32.164Z,3.40
2023-04-14T23:07:01.488Z,3.40
2023-04-14T23:09:31.185Z,3.10
2023-04-14T23:12:01.322Z,2.70
2023-04-14T23:14:32.164Z,3.30
2023-04-14T23:17:01.833Z,3.60
2023-04-14T23:19:32.497Z,2.80
2023-04-14T23:22:02.264Z,2.90
2023-04-14T23:24:32.017Z,3.00
2023-04-14T23:27:01.283Z,3.10
2023-04-14T23:29:30.834Z,3.20
2023-04-14T23:32:00.846Z,2.80
2023-04-14T23:34:32.289Z,2.70
2023-04-14T23:37:04.047Z,2.70
2023-04-14T23:39:34.005Z,2.90
2023-04-14T23:42:04.244Z,2.40
2023-04-14T23:44:33.785Z,2.60
2023-04-14T23:47:04.716Z,2.80
2023-04-14T23:49:35.895Z,2.30
2023-04-14T23:52:06.523Z,2.60
2023-04-14T23:54:36.030Z,2.40
2023-04-14T23:57:05.849Z,3.00
2023-04-14T23:59:35.614Z,2.50
